createdAt,value
2019-06-10T00:01:21.116Z,13.50
2019-06-10T00:03:51.451Z,13.60
2019-06-10T00:06:20.970Z,13.60
2019-06-10T00:08:50.632Z,13.50
2019-06-10T00:11:27.721Z,13.50
2019-06-10T00:13:56.630Z,13.60
2019-06-10T00:16:27.727Z,13.50
2019-06-10T00:18:56.374Z,13.50
2019-06-10T00:21:26.383Z,13.40
2019-06-10T00:23:55.069Z,13.40
2019-06-10T00:26:23.765Z,13.40
2019-06-10T00:28:52.483Z,13.40
2019-06-10T00:31:21.107Z,13.30
2019-06-10T00:34:02.920Z,13.30
2019-06-10T00:36:30.910Z,13.30
2019-06-10T00:39:02.454Z,13.40
2019-06-10T00:41:31.266Z,13.40
2019-06-10T00:44:01.891Z,13.40
2019-06-10T00:46:31.673Z,13.40
2019-06-10T00:49:02.945Z,13.60
2019-06-10T00:51:31.379Z,13.50
2019-06-10T00:54:03.317Z,13.50
2019-06-10T00:56:30.855Z,13.50
2019-06-10T00:59:01.052Z,13.40
2019-06-10T01:01:31.305Z,13.40
2019-06-10T01:04:01.910Z,13.40
2019-06-10T01:06:31.775Z,13.50
2019-06-10T01:09:02.516Z,13.40
2019-06-10T01:11:31.394Z,13.60
2019-06-10T01:14:01.424Z,13.70
2019-06-10T01:16:32.031Z,13.60
2019-06-10T01:19:01.477Z,13.70
2019-06-10T01:21:31.433Z,13.70
2019-06-10T01:24:01.189Z,13.70
2019-06-10T01:26:31.151Z,13.60
2019-06-10T01:29:01.261Z,13.60
2019-06-10T01:31:31.734Z,13.60
2019-06-10T01:34:00.713Z,13.60
2019-06-10T01:36:31.393Z,13.50
2019-06-10T01:39:01.545Z,13.50
2019-06-10T01:41:30.697Z,13.40
2019-06-10T01:44:01.761Z,13.40
2019-06-10T01:46:34.743Z,13.70
2019-06-10T01:49:03.919Z,13.80
2019-06-10T01:51:32.639Z,13.70
2019-06-10T01:54:02.003Z,13.50
2019-06-10T01:56:31.487Z,13.40
2019-06-10T01:59:01.496Z,13.30
2019-06-10T02:01:38.105Z,13.30
2019-06-10T02:04:08.188Z,13.30
2019-06-10T02:06:37.286Z,13.20
2019-06-10T02:09:08.896Z,13.10
2019-06-10T02:11:41.154Z,13.20
2019-06-10T02:14:10.104Z,13.20
2019-06-10T02:16:41.307Z,13.30
2019-06-10T02:19:15.498Z,13.40
2019-06-10T02:21:45.129Z,13.40
2019-06-10T02:24:14.788Z,13.40
2019-06-10T02:26:44.238Z,13.30
2019-06-10T02:29:14.317Z,13.20
2019-06-10T02:31:43.804Z,13.20
2019-06-10T02:34:17.532Z,13.10
2019-06-10T02:36:44.631Z,13.10
2019-06-10T02:39:21.434Z,13.20
2019-06-10T02:41:44.915Z,13.20
2019-06-10T02:44:17.241Z,13.20
2019-06-10T02:46:44.166Z,13.20
2019-06-10T02:49:28.350Z,13.10
2019-06-10T02:51:44.059Z,13.10
2019-06-10T02:54:16.098Z,13.00
2019-06-10T02:56:44.366Z,12.90
2019-06-10T02:59:13.432Z,12.80
2019-06-10T03:01:43.925Z,12.70
2019-06-10T03:04:13.842Z,12.70
2019-06-10T03:06:44.801Z,12.70
2019-06-10T03:09:14.126Z,12.60
2019-06-10T03:11:44.902Z,12.80
2019-06-10T03:14:13.501Z,12.70
2019-06-10T03:16:43.838Z,12.70
2019-06-10T03:19:13.325Z,12.60
2019-06-10T03:21:42.845Z,12.60
2019-06-10T03:24:13.156Z,12.60
2019-06-10T03:26:42.893Z,12.60
2019-06-10T03:29:12.929Z,12.70
2019-06-10T03:31:47.769Z,12.60
2019-06-10T03:34:14.761Z,12.70
2019-06-10T03:36:42.916Z,12.70
2019-06-10T03:39:13.287Z,12.50
2019-06-10T03:41:42.463Z,12.50
2019-06-10T03:44:13.189Z,12.50
2019-06-10T03:46:43.111Z,12.50
2019-06-10T03:49:12.690Z,12.60
2019-06-10T03:51:42.853Z,12.60
2019-06-10T03:54:13.100Z,12.60
2019-06-10T03:56:42.991Z,12.50
2019-06-10T03:59:12.335Z,12.60
2019-06-10T04:01:42.563Z,12.70
2019-06-10T04:04:13.124Z,12.70
2019-06-10T04:06:44.297Z,12.90
2019-06-10T04:09:12.638Z,12.90
2019-06-10T04:11:43.151Z,12.90
2019-06-10T04:14:13.030Z,13.00
2019-06-10T04:16:43.301Z,12.90
2019-06-10T04:19:13.092Z,12.90
2019-06-10T04:21:43.206Z,13.00
2019-06-10T04:24:12.827Z,12.90
2019-06-10T04:26:43.484Z,12.80
2019-06-10T04:29:13.345Z,12.80
2019-06-10T04:31:42.638Z,12.70
2019-06-10T04:34:12.415Z,12.70
2019-06-10T04:36:42.326Z,12.80
2019-06-10T04:39:12.579Z,12.70
2019-06-10T04:41:42.650Z,12.80
2019-06-10T04:44:13.125Z,12.90
2019-06-10T04:46:42.763Z,13.00
2019-06-10T04:49:13.202Z,13.10
2019-06-10T04:51:43.455Z,13.10
2019-06-10T04:54:13.363Z,13.00
2019-06-10T04:56:42.970Z,13.00
2019-06-10T04:59:12.681Z,12.90
2019-06-10T05:01:42.597Z,13.00
2019-06-10T05:04:12.568Z,13.00
2019-06-10T05:06:42.156Z,12.90
2019-06-10T05:09:12.440Z,12.80
2019-06-10T05:11:43.057Z,12.90
2019-06-10T05:14:13.355Z,12.70
2019-06-10T05:16:43.138Z,12.70
2019-06-10T05:19:12.906Z,12.80
2019-06-10T05:21:42.507Z,12.90
2019-06-10T05:24:12.478Z,12.90
2019-06-10T05:26:42.552Z,12.90
2019-06-10T05:29:12.095Z,13.00
2019-06-10T05:31:43.565Z,12.90
2019-06-10T05:34:13.143Z,12.70
2019-06-10T05:36:43.566Z,12.80
2019-06-10T05:39:14.031Z,12.90
2019-06-10T05:41:43.269Z,12.90
2019-06-10T05:44:13.783Z,13.00
2019-06-10T05:46:43.547Z,14.10
2019-06-10T05:49:13.100Z,14.00
2019-06-10T05:51:42.335Z,14.90
2019-06-10T05:54:12.871Z,15.80
2019-06-10T05:56:43.253Z,16.50
2019-06-10T05:59:12.590Z,16.80
2019-06-10T06:01:43.198Z,16.30
2019-06-10T06:04:12.717Z,17.40
2019-06-10T06:06:44.389Z,16.30
2019-06-10T06:09:12.924Z,16.80
2019-06-10T06:11:43.152Z,16.30
2019-06-10T06:14:13.326Z,14.70
2019-06-10T06:16:43.233Z,13.20
2019-06-10T06:19:12.814Z,12.80
2019-06-10T06:21:46.645Z,12.60
2019-06-10T06:24:12.862Z,12.60
2019-06-10T06:26:43.123Z,12.50
2019-06-10T06:29:12.952Z,12.60
2019-06-10T06:31:42.930Z,12.60
2019-06-10T06:34:13.836Z,12.50
2019-06-10T06:36:42.629Z,12.60
2019-06-10T06:39:12.884Z,12.60
2019-06-10T06:41:42.743Z,12.70
2019-06-10T06:44:12.969Z,12.80
2019-06-10T06:46:42.956Z,12.70
2019-06-10T06:49:12.773Z,12.80
2019-06-10T06:51:51.805Z,12.80
2019-06-10T06:54:12.583Z,12.90
2019-06-10T06:56:43.749Z,12.70
2019-06-10T06:59:13.228Z,12.70
2019-06-10T07:01:44.293Z,12.90
2019-06-10T07:04:13.108Z,12.90
2019-06-10T07:06:43.345Z,13.00
2019-06-10T07:09:13.524Z,13.00
2019-06-10T07:11:45.359Z,13.20
2019-06-10T07:14:14.897Z,13.30
2019-06-10T07:16:45.973Z,14.60
2019-06-10T07:19:14.208Z,15.60
2019-06-10T07:22:02.756Z,15.80
2019-06-10T07:24:13.444Z,17.30
2019-06-10T07:26:50.209Z,18.10
2019-06-10T07:29:13.176Z,18.80
2019-06-10T07:31:45.958Z,19.40
2019-06-10T07:34:13.085Z,19.70
2019-06-10T07:36:44.037Z,20.10
2019-06-10T07:39:13.369Z,19.50
2019-06-10T07:41:47.432Z,18.80
2019-06-10T07:44:12.778Z,18.50
2019-06-10T07:46:43.895Z,18.50
2019-06-10T07:49:13.407Z,18.50
2019-06-10T07:51:46.087Z,18.60
2019-06-10T07:54:12.852Z,18.50
2019-06-10T07:56:49.456Z,18.40
2019-06-10T07:59:12.952Z,18.10
2019-06-10T08:01:48.787Z,17.90
2019-06-10T08:04:12.264Z,18.00
2019-06-10T08:06:44.082Z,17.80
2019-06-10T08:09:12.615Z,18.00
2019-06-10T08:11:44.844Z,18.40
2019-06-10T08:14:13.057Z,19.30
2019-06-10T08:16:46.052Z,20.40
2019-06-10T08:19:34.799Z,20.60
2019-06-10T08:21:47.031Z,20.50
2019-06-10T08:24:32.888Z,20.40
2019-06-10T08:27:02.700Z,20.40
2019-06-10T08:29:32.997Z,20.30
2019-06-10T08:32:03.332Z,20.20
2019-06-10T08:34:33.082Z,20.30
2019-06-10T08:37:04.274Z,20.20
2019-06-10T08:39:33.458Z,20.50
2019-06-10T08:42:03.166Z,20.80
2019-06-10T08:44:32.742Z,20.90
2019-06-10T08:47:03.103Z,20.60
2019-06-10T08:49:32.729Z,20.70
2019-06-10T08:52:02.687Z,20.60
2019-06-10T08:54:32.445Z,20.90
2019-06-10T08:57:03.711Z,21.20
2019-06-10T08:59:32.558Z,21.10
2019-06-10T09:02:02.911Z,21.70
2019-06-10T09:04:33.062Z,21.50
2019-06-10T09:07:04.193Z,21.30
2019-06-10T09:09:33.487Z,21.70
2019-06-10T09:12:03.611Z,21.80
2019-06-10T09:14:32.776Z,21.70
2019-06-10T09:17:03.396Z,23.50
2019-06-10T09:19:33.255Z,25.10
2019-06-10T09:22:03.427Z,25.30
2019-06-10T09:24:32.879Z,25.90
2019-06-10T09:27:02.930Z,24.40
2019-06-10T09:29:32.861Z,24.10
2019-06-10T09:32:02.215Z,23.00
2019-06-10T09:34:33.015Z,22.80
2019-06-10T09:37:03.518Z,22.30
2019-06-10T09:39:32.837Z,21.60
2019-06-10T09:42:06.192Z,21.40
2019-06-10T09:44:33.408Z,21.00
2019-06-10T09:47:07.883Z,20.60
2019-06-10T09:49:38.001Z,20.90
2019-06-10T09:52:06.707Z,21.40
2019-06-10T09:54:35.516Z,21.60
2019-06-10T09:57:04.621Z,22.20
2019-06-10T09:59:35.567Z,22.50
2019-06-10T10:02:07.137Z,23.00
2019-06-10T10:04:37.528Z,23.10
2019-06-10T10:07:06.247Z,23.00
2019-06-10T10:09:37.069Z,22.70
2019-06-10T10:12:05.713Z,22.50
2019-06-10T10:14:34.362Z,22.20
2019-06-10T10:17:12.676Z,21.70
2019-06-10T10:19:46.843Z,21.20
2019-06-10T10:22:22.932Z,20.70
2019-06-10T10:24:59.179Z,19.60
2019-06-10T10:27:32.324Z,18.70
2019-06-10T10:30:04.011Z,18.00
2019-06-10T10:32:38.308Z,17.70
2019-06-10T10:35:13.272Z,17.40
2019-06-10T10:37:44.550Z,17.40
2019-06-10T10:40:14.939Z,17.50
2019-06-10T10:43:22.262Z,17.40
2019-06-10T10:45:33.507Z,17.50
2019-06-10T10:48:02.587Z,17.40
2019-06-10T10:50:34.226Z,17.10
2019-06-10T10:53:03.438Z,17.20
2019-06-10T10:55:33.386Z,16.70
2019-06-10T10:58:03.163Z,16.20
2019-06-10T11:00:45.398Z,16.20
2019-06-10T11:03:14.123Z,16.40
2019-06-10T11:05:48.149Z,16.30
2019-06-10T11:08:16.107Z,16.20
2019-06-10T11:10:47.700Z,16.10
2019-06-10T11:13:16.161Z,15.50
2019-06-10T11:15:45.767Z,14.70
2019-06-10T11:18:15.486Z,13.90
2019-06-10T11:20:45.267Z,13.70
2019-06-10T11:23:14.267Z,14.40
2019-06-10T11:25:43.231Z,14.50
2019-06-10T11:28:11.985Z,15.00
2019-06-10T11:30:42.629Z,15.30
2019-06-10T11:33:11.056Z,15.50
2019-06-10T11:35:39.744Z,15.70
2019-06-10T11:38:08.507Z,16.00
2019-06-10T11:40:37.245Z,16.30
2019-06-10T11:43:05.978Z,16.60
2019-06-10T11:45:35.485Z,16.80
2019-06-10T11:48:04.982Z,16.90
2019-06-10T11:50:33.680Z,17.20
2019-06-10T11:53:04.446Z,17.40
2019-06-10T11:55:33.381Z,17.30
2019-06-10T11:58:05.004Z,17.80
2019-06-10T12:00:33.990Z,18.20
2019-06-10T12:03:03.574Z,18.70
2019-06-10T12:05:32.784Z,19.50
2019-06-10T12:08:02.731Z,20.50
2019-06-10T12:10:33.089Z,20.60
2019-06-10T12:13:07.072Z,21.20
2019-06-10T12:16:09.704Z,21.20
2019-06-10T12:18:07.920Z,20.90
2019-06-10T12:20:33.478Z,20.40
2019-06-10T12:23:04.564Z,20.60
2019-06-10T12:25:39.328Z,21.20
2019-06-10T12:28:07.162Z,22.10
2019-06-10T12:30:34.442Z,22.50
2019-06-10T12:33:05.624Z,23.10
2019-06-10T12:35:33.658Z,22.80
2019-06-10T12:38:05.976Z,22.60
2019-06-10T12:40:32.746Z,23.30
2019-06-10T12:43:04.692Z,24.30
2019-06-10T12:45:32.627Z,24.40
2019-06-10T12:48:05.042Z,24.20
2019-06-10T12:50:32.028Z,23.60
2019-06-10T12:53:04.635Z,23.90
2019-06-10T12:55:39.310Z,24.00
2019-06-10T12:58:04.385Z,23.80
2019-06-10T13:00:34.709Z,23.70
2019-06-10T13:03:05.326Z,24.50
2019-06-10T13:05:34.105Z,24.40
2019-06-10T13:08:05.784Z,24.90
2019-06-10T13:10:42.950Z,24.40
2019-06-10T13:13:12.264Z,24.10
2019-06-10T13:15:43.323Z,23.40
2019-06-10T13:18:18.993Z,23.80
2019-06-10T13:20:43.395Z,23.70
2019-06-10T13:23:20.293Z,23.70
2019-06-10T13:25:54.245Z,23.80
2019-06-10T13:28:13.243Z,23.40
2019-06-10T13:30:42.824Z,23.50
2019-06-10T13:33:14.423Z,23.60
2019-06-10T13:35:44.274Z,23.40
2019-06-10T13:38:12.515Z,23.40
2019-06-10T13:40:42.844Z,23.50
2019-06-10T13:43:12.433Z,23.50
2019-06-10T13:45:42.911Z,23.80
2019-06-10T13:48:14.840Z,23.20
2019-06-10T13:50:42.559Z,23.60
2019-06-10T13:53:13.462Z,22.70
2019-06-10T13:55:42.357Z,22.60
2019-06-10T13:58:13.896Z,22.60
2019-06-10T14:00:46.153Z,22.90
2019-06-10T14:03:15.947Z,23.40
2019-06-10T14:05:44.767Z,23.30
2019-06-10T14:08:15.418Z,23.10
2019-06-10T14:10:44.042Z,23.10
2019-06-10T14:13:15.532Z,23.00
2019-06-10T14:15:43.468Z,22.20
2019-06-10T14:18:15.021Z,21.90
2019-06-10T14:20:44.077Z,21.60
2019-06-10T14:23:17.225Z,20.70
2019-06-10T14:25:43.446Z,20.60
2019-06-10T14:28:19.660Z,19.30
2019-06-10T14:30:43.052Z,18.00
2019-06-10T14:33:16.335Z,17.10
2019-06-10T14:35:42.893Z,16.90
2019-06-10T14:38:14.018Z,16.90
2019-06-10T14:40:42.930Z,16.50
2019-06-10T14:43:13.473Z,16.70
2019-06-10T14:45:44.107Z,16.70
2019-06-10T14:48:15.653Z,16.70
2019-06-10T14:50:43.580Z,16.80
2019-06-10T14:53:14.191Z,17.00
2019-06-10T14:55:43.409Z,16.80
2019-06-10T14:58:13.754Z,16.60
2019-06-10T15:00:45.400Z,16.80
2019-06-10T15:03:19.010Z,16.60
2019-06-10T15:05:43.456Z,16.40
2019-06-10T15:08:15.072Z,16.30
2019-06-10T15:10:43.075Z,16.40
2019-06-10T15:13:11.879Z,16.70
2019-06-10T15:15:42.431Z,16.80
2019-06-10T15:18:12.173Z,17.10
2019-06-10T15:20:42.804Z,17.00
2019-06-10T15:23:15.234Z,17.20
2019-06-10T15:25:50.083Z,17.00
2019-06-10T15:28:16.060Z,17.10
2019-06-10T15:30:45.486Z,17.00
2019-06-10T15:33:16.562Z,17.10
2019-06-10T15:35:45.194Z,17.30
2019-06-10T15:38:15.642Z,17.20
2019-06-10T15:40:44.461Z,17.40
2019-06-10T15:43:13.789Z,17.40
2019-06-10T15:45:44.206Z,17.20
2019-06-10T15:48:15.630Z,17.30
2019-06-10T15:50:43.186Z,17.40
2019-06-10T15:53:13.953Z,17.30
2019-06-10T15:56:08.981Z,17.40
2019-06-10T15:58:14.406Z,17.60
2019-06-10T16:00:43.189Z,17.60
2019-06-10T16:03:14.263Z,17.50
2019-06-10T16:05:42.745Z,17.30
2019-06-10T16:08:12.918Z,16.80
2019-06-10T16:10:42.878Z,16.80
2019-06-10T16:13:12.573Z,17.20
2019-06-10T16:15:43.428Z,16.90
2019-06-10T16:18:13.685Z,16.80
2019-06-10T16:20:42.963Z,16.80
2019-06-10T16:23:12.179Z,16.80
2019-06-10T16:25:42.700Z,16.90
2019-06-10T16:28:12.873Z,17.00
2019-06-10T16:30:42.994Z,17.10
2019-06-10T16:33:13.073Z,17.20
2019-06-10T16:35:42.237Z,17.10
2019-06-10T16:38:12.695Z,17.10
2019-06-10T16:40:43.195Z,16.90
2019-06-10T16:43:17.850Z,16.80
2019-06-10T16:45:46.558Z,16.90
2019-06-10T16:48:15.355Z,16.80
2019-06-10T16:50:47.115Z,16.70
2019-06-10T16:53:14.516Z,16.90
2019-06-10T16:55:43.386Z,16.80
2019-06-10T16:58:13.018Z,16.80
2019-06-10T17:00:43.208Z,16.40
2019-06-10T17:03:12.801Z,16.80
2019-06-10T17:05:42.630Z,16.40
2019-06-10T17:08:12.677Z,16.70
2019-06-10T17:10:43.543Z,16.50
2019-06-10T17:13:15.012Z,16.30
2019-06-10T17:15:43.702Z,16.00
2019-06-10T17:18:13.090Z,16.30
2019-06-10T17:20:42.983Z,16.60
2019-06-10T17:23:26.596Z,17.00
2019-06-10T17:25:57.281Z,16.90
2019-06-10T17:28:29.743Z,17.00
2019-06-10T17:30:58.207Z,17.10
2019-06-10T17:33:28.269Z,16.90
2019-06-10T17:35:57.293Z,17.00
2019-06-10T17:38:26.881Z,17.00
2019-06-10T17:40:55.981Z,17.10
2019-06-10T17:43:25.186Z,17.10
2019-06-10T17:45:54.019Z,17.00
2019-06-10T17:48:24.300Z,17.30
2019-06-10T17:50:53.084Z,17.70
2019-06-10T17:53:22.587Z,17.90
2019-06-10T17:55:51.621Z,17.80
2019-06-10T17:58:33.328Z,17.70
2019-06-10T18:00:53.032Z,17.70
2019-06-10T18:03:23.254Z,17.80
2019-06-10T18:05:53.315Z,17.90
2019-06-10T18:08:22.833Z,17.60
2019-06-10T18:10:53.556Z,17.80
2019-06-10T18:13:24.558Z,17.70
2019-06-10T18:15:53.692Z,17.70
2019-06-10T18:18:22.511Z,17.50
2019-06-10T18:20:53.570Z,17.00
2019-06-10T18:23:23.178Z,16.30
2019-06-10T18:25:52.807Z,15.80
2019-06-10T18:28:22.683Z,15.60
2019-06-10T18:30:53.110Z,15.90
2019-06-10T18:33:22.995Z,16.40
2019-06-10T18:35:53.210Z,16.70
2019-06-10T18:38:22.527Z,16.70
2019-06-10T18:40:53.506Z,16.50
2019-06-10T18:43:22.940Z,16.40
2019-06-10T18:45:53.353Z,16.20
2019-06-10T18:48:23.262Z,16.20
2019-06-10T18:50:53.447Z,16.20
2019-06-10T18:53:23.757Z,16.20
2019-06-10T18:55:54.761Z,16.20
2019-06-10T18:58:23.640Z,16.20
2019-06-10T19:01:02.742Z,16.10
2019-06-10T19:03:23.292Z,15.90
2019-06-10T19:05:53.002Z,15.90
2019-06-10T19:08:22.445Z,15.90
2019-06-10T19:10:53.690Z,15.90
2019-06-10T19:13:22.697Z,15.80
2019-06-10T19:15:53.008Z,15.70
2019-06-10T19:18:23.386Z,15.70
2019-06-10T19:20:53.401Z,15.60
2019-06-10T19:23:22.947Z,15.40
2019-06-10T19:25:52.586Z,15.30
2019-06-10T19:28:22.765Z,15.10
2019-06-10T19:30:53.460Z,14.70
2019-06-10T19:33:23.485Z,14.50
2019-06-10T19:35:53.316Z,14.40
2019-06-10T19:38:23.083Z,14.10
2019-06-10T19:40:52.565Z,14.00
2019-06-10T19:43:21.873Z,14.10
2019-06-10T19:45:52.773Z,14.00
2019-06-10T19:48:20.831Z,13.90
2019-06-10T19:50:51.297Z,13.90
2019-06-10T19:53:22.403Z,13.70
2019-06-10T19:55:53.352Z,13.70
2019-06-10T19:58:23.632Z,13.70
2019-06-10T20:00:54.525Z,13.60
2019-06-10T20:03:23.486Z,13.30
2019-06-10T20:05:53.459Z,13.00
2019-06-10T20:08:22.802Z,13.10
2019-06-10T20:10:53.081Z,13.20
2019-06-10T20:13:23.028Z,13.30
2019-06-10T20:15:52.690Z,13.50
2019-06-10T20:18:22.734Z,13.50
2019-06-10T20:20:54.020Z,13.40
2019-06-10T20:23:22.768Z,13.50
2019-06-10T20:25:52.688Z,13.60
2019-06-10T20:28:22.381Z,13.50
2019-06-10T20:30:52.945Z,13.60
2019-06-10T20:33:36.343Z,13.60
2019-06-10T20:36:26.886Z,13.60
2019-06-10T20:38:53.555Z,13.70
2019-06-10T20:41:22.397Z,13.70
2019-06-10T20:43:55.154Z,13.80
2019-06-10T20:46:23.579Z,13.80
2019-06-10T20:48:54.589Z,13.70
2019-06-10T20:51:22.725Z,13.70
2019-06-10T20:53:53.290Z,13.70
2019-06-10T20:56:23.293Z,13.70
2019-06-10T20:58:52.592Z,13.60
2019-06-10T21:01:25.065Z,13.70
2019-06-10T21:03:54.107Z,13.70
2019-06-10T21:06:24.493Z,13.60
2019-06-10T21:08:54.977Z,13.30
2019-06-10T21:11:24.329Z,13.30
2019-06-10T21:13:55.545Z,13.40
2019-06-10T21:16:23.394Z,13.30
2019-06-10T21:18:55.490Z,13.30
2019-06-10T21:21:22.776Z,13.30
2019-06-10T21:23:53.899Z,13.20
2019-06-10T21:26:25.418Z,13.20
2019-06-10T21:28:55.062Z,13.30
2019-06-10T21:31:24.134Z,13.20
2019-06-10T21:33:55.687Z,13.10
2019-06-10T21:36:23.277Z,13.10
2019-06-10T21:38:55.802Z,13.10
2019-06-10T21:41:22.821Z,13.00
2019-06-10T21:43:58.668Z,12.70
2019-06-10T21:46:22.757Z,12.60
2019-06-10T21:48:53.209Z,12.70
2019-06-10T21:51:22.809Z,12.80
2019-06-10T21:53:54.714Z,12.80
2019-06-10T21:56:22.649Z,12.90
2019-06-10T21:58:53.638Z,12.90
2019-06-10T22:01:22.610Z,12.90
2019-06-10T22:03:58.708Z,12.80
2019-06-10T22:06:22.793Z,12.60
2019-06-10T22:08:54.291Z,12.60
2019-06-10T22:11:23.365Z,12.80
2019-06-10T22:13:53.313Z,12.80
2019-06-10T22:16:22.791Z,12.60
2019-06-10T22:18:52.926Z,12.70
2019-06-10T22:21:22.717Z,12.70
2019-06-10T22:23:53.971Z,12.80
2019-06-10T22:26:22.532Z,12.80
2019-06-10T22:28:54.146Z,12.80
2019-06-10T22:31:23.752Z,12.80
2019-06-10T22:33:54.620Z,12.70
2019-06-10T22:36:23.131Z,12.80
2019-06-10T22:38:55.603Z,12.80
2019-06-10T22:41:22.686Z,12.80
2019-06-10T22:43:54.256Z,12.80
2019-06-10T22:46:23.183Z,12.90
2019-06-10T22:48:53.409Z,12.70
2019-06-10T22:51:22.885Z,12.80
2019-06-10T22:53:54.732Z,12.90
2019-06-10T22:56:22.171Z,12.80
2019-06-10T22:58:53.949Z,12.80
2019-06-10T23:01:31.641Z,12.80
2019-06-10T23:03:52.134Z,12.70
2019-06-10T23:06:23.203Z,12.30
2019-06-10T23:08:54.658Z,11.90
2019-06-10T23:11:24.085Z,11.70
2019-06-10T23:13:53.829Z,11.40
2019-06-10T23:16:22.891Z,11.60
2019-06-10T23:18:54.999Z,12.00
2019-06-10T23:21:21.935Z,11.50
2019-06-10T23:23:53.848Z,11.50
2019-06-10T23:26:22.574Z,11.40
2019-06-10T23:28:54.081Z,11.40
2019-06-10T23:31:23.034Z,11.10
